BOE001 RJTT-RJFK
Flight info
| Callsign | BOE001 |
|---|---|
| Flight time | 1h 28m |
| Altitude | 40000 |
| Route | LAXAS4 LAXAS Y56 TOHME Y54 TURFY Y24 SUC Y757 SPICA SIMAZE |
| Aircraft | B77W/H-SDE1E2E3FGHIJ2J3J4J5M1RWXY/LB1D1 |
Departure
| Time | 2026-05-08 11:56 |
|---|---|
| Airport | Tokyo Haneda International Airport (RJTT) |
Arrival
| Time | 2026-05-08 13:24 |
|---|---|
| Airport | Kagoshima Airport (RJFK) |
| Time | Latitude | Longitude | Altitude | Speed | Heading |
|---|---|---|---|---|---|
| 2026-05-08 11:20 | 35.55323 | 139.75905 | 28 ft | 0 kts | 304° |
| 2026-05-08 11:47 | 35.55320 | 139.75910 | 27 ft | 2 kts | 304° |
| 2026-05-08 11:47 | 35.55311 | 139.75926 | 25 ft | 2 kts | 304° |
| 2026-05-08 11:47 | 35.55301 | 139.75943 | 26 ft | 2 kts | 304° |
| 2026-05-08 11:48 | 35.55292 | 139.75959 | 25 ft | 2 kts | 304° |
| 2026-05-08 11:48 | 35.55282 | 139.75976 | 25 ft | 2 kts | 304° |
| 2026-05-08 11:48 | 35.55273 | 139.75993 | 27 ft | 2 kts | 304° |
| 2026-05-08 11:48 | 35.55264 | 139.76009 | 25 ft | 2 kts | 304° |
| 2026-05-08 11:49 | 35.55258 | 139.76020 | 26 ft | 2 kts | 305° |
| 2026-05-08 11:49 | 35.55246 | 139.76034 | 26 ft | 2 kts | 342° |
| 2026-05-08 11:49 | 35.55230 | 139.76037 | 26 ft | 2 kts | 7° |
| 2026-05-08 11:49 | 35.55217 | 139.76033 | 27 ft | 1 kts | 27° |
| 2026-05-08 11:50 | 35.55215 | 139.76033 | 27 ft | 0 kts | 31° |
| 2026-05-08 11:52 | 35.55224 | 139.76039 | 26 ft | 4 kts | 33° |
| 2026-05-08 11:52 | 35.55278 | 139.76084 | 28 ft | 14 kts | 34° |
| 2026-05-08 11:52 | 35.55378 | 139.76171 | 28 ft | 19 kts | 35° |
| 2026-05-08 11:53 | 35.55491 | 139.76267 | 28 ft | 20 kts | 35° |
| 2026-05-08 11:53 | 35.55597 | 139.76379 | 28 ft | 21 kts | 46° |
| 2026-05-08 11:53 | 35.55699 | 139.76513 | 28 ft | 21 kts | 47° |
| 2026-05-08 11:53 | 35.55804 | 139.76642 | 28 ft | 22 kts | 38° |
| 2026-05-08 11:54 | 35.55929 | 139.76754 | 28 ft | 23 kts | 35° |
| 2026-05-08 11:54 | 35.55998 | 139.76814 | 29 ft | 9 kts | 36° |
| 2026-05-08 11:54 | 35.56029 | 139.76877 | 29 ft | 9 kts | 90° |
| 2026-05-08 11:54 | 35.55994 | 139.76916 | 29 ft | 0 kts | 153° |
| 2026-05-08 11:55 | 35.55894 | 139.76983 | 30 ft | 57 kts | 150° |
| 2026-05-08 11:56 | 35.55261 | 139.77433 | 31 ft | 147 kts | 151° |
| 2026-05-08 11:56 | 35.54241 | 139.78139 | 507 ft | 178 kts | 156° |
| 2026-05-08 11:56 | 35.53155 | 139.78904 | 1618 ft | 180 kts | 159° |
| 2026-05-08 11:56 | 35.52048 | 139.79690 | 2526 ft | 193 kts | 159° |
| 2026-05-08 11:57 | 35.50774 | 139.80581 | 2920 ft | 230 kts | 157° |
| 2026-05-08 11:57 | 35.49264 | 139.81646 | 3349 ft | 264 kts | 156° |
| 2026-05-08 11:57 | 35.47646 | 139.82803 | 4346 ft | 275 kts | 156° |
| 2026-05-08 11:57 | 35.45973 | 139.83995 | 5505 ft | 281 kts | 157° |
| 2026-05-08 11:58 | 35.44213 | 139.84988 | 6473 ft | 274 kts | 176° |
| 2026-05-08 11:58 | 35.42392 | 139.84853 | 7577 ft | 256 kts | 206° |
| 2026-05-08 11:58 | 35.40882 | 139.83795 | 8813 ft | 247 kts | 225° |
| 2026-05-08 11:59 | 35.38690 | 139.80606 | 10879 ft | 257 kts | 235° |
| 2026-05-08 11:59 | 35.37541 | 139.78747 | 11298 ft | 292 kts | 235° |
| 2026-05-08 11:59 | 35.36234 | 139.76624 | 11608 ft | 327 kts | 234° |
| 2026-05-08 11:59 | 35.34824 | 139.74350 | 12665 ft | 337 kts | 234° |
| 2026-05-08 12:00 | 35.33408 | 139.72080 | 13923 ft | 341 kts | 234° |
| 2026-05-08 12:00 | 35.31956 | 139.69759 | 15151 ft | 344 kts | 234° |
| 2026-05-08 12:00 | 35.30501 | 139.67449 | 16326 ft | 348 kts | 234° |
| 2026-05-08 12:00 | 35.29002 | 139.65076 | 17481 ft | 353 kts | 234° |
| 2026-05-08 12:01 | 35.27480 | 139.62670 | 18500 ft | 359 kts | 233° |
| 2026-05-08 12:01 | 35.25955 | 139.60274 | 19462 ft | 363 kts | 234° |
| 2026-05-08 12:01 | 35.24406 | 139.57813 | 20483 ft | 366 kts | 234° |
| 2026-05-08 12:01 | 35.22848 | 139.55336 | 21515 ft | 369 kts | 234° |
| 2026-05-08 12:02 | 35.21270 | 139.52832 | 22473 ft | 372 kts | 234° |
| 2026-05-08 12:02 | 35.19668 | 139.50295 | 23251 ft | 380 kts | 234° |
| 2026-05-08 12:02 | 35.18035 | 139.47713 | 23935 ft | 385 kts | 234° |
| 2026-05-08 12:02 | 35.16406 | 139.45140 | 24672 ft | 388 kts | 234° |
| 2026-05-08 12:03 | 35.14749 | 139.42526 | 25443 ft | 390 kts | 234° |
| 2026-05-08 12:03 | 35.13077 | 139.39888 | 26195 ft | 393 kts | 234° |
| 2026-05-08 12:03 | 35.11391 | 139.37225 | 26768 ft | 400 kts | 234° |
| 2026-05-08 12:03 | 35.09670 | 139.34513 | 27372 ft | 405 kts | 234° |
| 2026-05-08 12:04 | 35.07929 | 139.31775 | 28032 ft | 408 kts | 234° |
| 2026-05-08 12:04 | 35.06216 | 139.29044 | 28682 ft | 410 kts | 236° |
| 2026-05-08 12:04 | 35.04748 | 139.26052 | 29276 ft | 412 kts | 243° |
| 2026-05-08 12:04 | 35.03536 | 139.22875 | 29813 ft | 415 kts | 246° |
| 2026-05-08 12:05 | 35.02467 | 139.19572 | 30243 ft | 418 kts | 250° |
| 2026-05-08 12:05 | 35.01691 | 139.16153 | 30692 ft | 421 kts | 256° |
| 2026-05-08 12:05 | 35.01124 | 139.12630 | 31151 ft | 421 kts | 256° |
| 2026-05-08 12:05 | 35.00572 | 139.09133 | 31744 ft | 418 kts | 256° |
| 2026-05-08 12:06 | 35.00005 | 139.05666 | 32339 ft | 415 kts | 255° |
| 2026-05-08 12:06 | 34.99421 | 139.02202 | 32859 ft | 414 kts | 255° |
| 2026-05-08 12:06 | 34.98900 | 138.98769 | 33551 ft | 410 kts | 257° |
| 2026-05-08 12:06 | 34.98586 | 138.95357 | 34109 ft | 410 kts | 261° |
| 2026-05-08 12:07 | 34.98425 | 138.91895 | 34553 ft | 408 kts | 261° |
| 2026-05-08 12:07 | 34.98252 | 138.88425 | 34890 ft | 409 kts | 261° |
| 2026-05-08 12:07 | 34.98072 | 138.84957 | 35321 ft | 407 kts | 261° |
| 2026-05-08 12:07 | 34.97891 | 138.81528 | 35794 ft | 404 kts | 261° |
| 2026-05-08 12:08 | 34.97710 | 138.78108 | 36214 ft | 404 kts | 261° |
| 2026-05-08 12:08 | 34.97528 | 138.74693 | 36619 ft | 403 kts | 261° |
| 2026-05-08 12:08 | 34.97347 | 138.71287 | 37023 ft | 402 kts | 261° |
| 2026-05-08 12:08 | 34.97165 | 138.67892 | 37425 ft | 401 kts | 261° |
| 2026-05-08 12:09 | 34.96982 | 138.64503 | 37871 ft | 399 kts | 261° |
| 2026-05-08 12:09 | 34.96801 | 138.61142 | 38415 ft | 395 kts | 261° |
| 2026-05-08 12:09 | 34.96621 | 138.57833 | 38686 ft | 395 kts | 261° |
| 2026-05-08 12:09 | 34.96435 | 138.54460 | 38898 ft | 397 kts | 261° |
| 2026-05-08 12:10 | 34.96248 | 138.51098 | 39133 ft | 398 kts | 260° |
| 2026-05-08 12:10 | 34.96055 | 138.47729 | 39355 ft | 399 kts | 260° |
| 2026-05-08 12:10 | 34.95865 | 138.44397 | 39606 ft | 399 kts | 261° |
| 2026-05-08 12:10 | 34.95674 | 138.40995 | 39675 ft | 403 kts | 260° |
| 2026-05-08 12:11 | 34.95294 | 138.34159 | 39759 ft | 403 kts | 261° |
| 2026-05-08 12:11 | 34.94922 | 138.27421 | 39777 ft | 397 kts | 260° |
| 2026-05-08 12:12 | 34.94539 | 138.20691 | 39783 ft | 395 kts | 260° |
| 2026-05-08 12:12 | 34.94149 | 138.14016 | 39776 ft | 394 kts | 260° |
| 2026-05-08 12:13 | 34.93752 | 138.07373 | 39781 ft | 395 kts | 260° |
| 2026-05-08 12:13 | 34.93357 | 138.00678 | 39776 ft | 396 kts | 260° |
| 2026-05-08 12:14 | 34.92960 | 137.93994 | 39797 ft | 397 kts | 261° |
| 2026-05-08 12:14 | 34.92564 | 137.87278 | 39806 ft | 396 kts | 261° |
| 2026-05-08 12:15 | 34.92160 | 137.80615 | 39822 ft | 396 kts | 260° |
| 2026-05-08 12:15 | 34.91749 | 137.73921 | 39841 ft | 396 kts | 261° |
| 2026-05-08 12:16 | 34.90908 | 137.67318 | 39841 ft | 393 kts | 253° |
| 2026-05-08 12:16 | 34.89409 | 137.60927 | 39854 ft | 391 kts | 248° |
| 2026-05-08 12:17 | 34.87510 | 137.54697 | 39856 ft | 392 kts | 248° |
| 2026-05-08 12:17 | 34.85622 | 137.48460 | 39859 ft | 393 kts | 248° |
| 2026-05-08 12:18 | 34.83795 | 137.42220 | 39856 ft | 394 kts | 249° |
| 2026-05-08 12:18 | 34.81997 | 137.35913 | 39878 ft | 394 kts | 249° |
| 2026-05-08 12:19 | 34.80194 | 137.29599 | 39878 ft | 394 kts | 249° |
| 2026-05-08 12:19 | 34.78401 | 137.23347 | 39878 ft | 394 kts | 249° |
| 2026-05-08 12:20 | 34.76583 | 137.17021 | 39881 ft | 394 kts | 249° |
| 2026-05-08 12:20 | 34.74776 | 137.10739 | 39904 ft | 394 kts | 249° |
| 2026-05-08 12:21 | 34.72970 | 137.04482 | 39895 ft | 394 kts | 249° |
| 2026-05-08 12:21 | 34.70904 | 136.98325 | 39897 ft | 393 kts | 242° |
| 2026-05-08 12:22 | 34.68195 | 136.92533 | 39878 ft | 393 kts | 239° |
| 2026-05-08 12:22 | 34.64942 | 136.87166 | 39888 ft | 394 kts | 234° |
| 2026-05-08 12:23 | 34.61535 | 136.81983 | 39855 ft | 394 kts | 233° |
| 2026-05-08 12:23 | 34.58141 | 136.76807 | 39890 ft | 393 kts | 234° |
| 2026-05-08 12:24 | 34.54730 | 136.71575 | 39909 ft | 394 kts | 234° |
| 2026-05-08 12:24 | 34.51328 | 136.66343 | 39907 ft | 395 kts | 234° |
| 2026-05-08 12:25 | 34.47939 | 136.61133 | 39908 ft | 396 kts | 234° |
| 2026-05-08 12:25 | 34.44523 | 136.55874 | 39917 ft | 396 kts | 235° |
| 2026-05-08 12:26 | 34.41118 | 136.50602 | 39912 ft | 397 kts | 235° |
| 2026-05-08 12:26 | 34.37691 | 136.45344 | 39913 ft | 398 kts | 234° |
| 2026-05-08 12:27 | 34.34270 | 136.40121 | 39910 ft | 398 kts | 234° |
| 2026-05-08 12:27 | 34.30821 | 136.34860 | 39898 ft | 398 kts | 234° |
| 2026-05-08 12:28 | 34.27372 | 136.29608 | 39905 ft | 398 kts | 234° |
| 2026-05-08 12:28 | 34.23936 | 136.24401 | 39914 ft | 398 kts | 234° |
| 2026-05-08 12:29 | 34.20476 | 136.19143 | 39913 ft | 400 kts | 234° |
| 2026-05-08 12:29 | 34.17013 | 136.13875 | 39910 ft | 399 kts | 235° |
| 2026-05-08 12:30 | 34.14134 | 136.09530 | 39927 ft | 397 kts | 234° |
| 2026-05-08 12:30 | 34.10121 | 136.03450 | 39918 ft | 397 kts | 234° |
| 2026-05-08 12:31 | 34.07254 | 135.99115 | 39916 ft | 398 kts | 235° |
| 2026-05-08 12:31 | 34.03803 | 135.93879 | 39895 ft | 396 kts | 235° |
| 2026-05-08 12:32 | 34.00389 | 135.88718 | 39939 ft | 395 kts | 234° |
| 2026-05-08 12:32 | 33.96924 | 135.83532 | 39924 ft | 397 kts | 235° |
| 2026-05-08 12:33 | 33.93437 | 135.78317 | 39919 ft | 400 kts | 234° |
| 2026-05-08 12:33 | 33.89966 | 135.73122 | 39937 ft | 400 kts | 234° |
| 2026-05-08 12:34 | 33.86453 | 135.67867 | 39926 ft | 404 kts | 235° |
| 2026-05-08 12:34 | 33.82924 | 135.62575 | 39927 ft | 406 kts | 235° |
| 2026-05-08 12:35 | 33.79372 | 135.57263 | 39921 ft | 407 kts | 235° |
| 2026-05-08 12:35 | 33.75817 | 135.51974 | 39947 ft | 406 kts | 234° |
| 2026-05-08 12:36 | 33.72291 | 135.46730 | 39921 ft | 405 kts | 235° |
| 2026-05-08 12:36 | 33.68745 | 135.41458 | 39910 ft | 404 kts | 234° |
| 2026-05-08 12:37 | 33.65232 | 135.36241 | 39907 ft | 403 kts | 235° |
| 2026-05-08 12:37 | 33.61704 | 135.31011 | 39910 ft | 402 kts | 235° |
| 2026-05-08 12:38 | 33.58179 | 135.25792 | 39920 ft | 402 kts | 235° |
| 2026-05-08 12:38 | 33.54674 | 135.20612 | 39931 ft | 402 kts | 235° |
| 2026-05-08 12:39 | 33.51148 | 135.15407 | 39944 ft | 402 kts | 235° |
| 2026-05-08 12:39 | 33.47608 | 135.10188 | 39954 ft | 403 kts | 235° |
| 2026-05-08 12:40 | 33.44084 | 135.05000 | 39962 ft | 403 kts | 235° |
| 2026-05-08 12:40 | 33.40533 | 134.99781 | 39985 ft | 403 kts | 235° |
| 2026-05-08 12:41 | 33.36998 | 134.94589 | 39976 ft | 404 kts | 235° |
| 2026-05-08 12:41 | 33.33439 | 134.89365 | 39972 ft | 404 kts | 235° |
| 2026-05-08 12:42 | 33.29874 | 134.84138 | 39941 ft | 404 kts | 235° |
| 2026-05-08 12:42 | 33.26344 | 134.78969 | 39964 ft | 404 kts | 235° |
| 2026-05-08 12:43 | 33.22779 | 134.73754 | 39975 ft | 405 kts | 235° |
| 2026-05-08 12:43 | 33.19244 | 134.68521 | 39976 ft | 403 kts | 238° |
| 2026-05-08 12:44 | 33.16464 | 134.62745 | 39964 ft | 400 kts | 245° |
| 2026-05-08 12:44 | 33.14320 | 134.56617 | 39978 ft | 400 kts | 253° |
| 2026-05-08 12:45 | 33.12780 | 134.50274 | 39978 ft | 401 kts | 254° |
| 2026-05-08 12:45 | 33.11241 | 134.43865 | 39976 ft | 402 kts | 254° |
| 2026-05-08 12:46 | 33.09668 | 134.37440 | 39972 ft | 402 kts | 254° |
| 2026-05-08 12:46 | 33.08096 | 134.31075 | 39977 ft | 402 kts | 254° |
| 2026-05-08 12:47 | 33.06509 | 134.24667 | 39976 ft | 402 kts | 254° |
| 2026-05-08 12:47 | 33.04938 | 134.18251 | 39983 ft | 402 kts | 254° |
| 2026-05-08 12:48 | 33.03399 | 134.11882 | 39976 ft | 401 kts | 254° |
| 2026-05-08 12:48 | 33.01850 | 134.05488 | 39982 ft | 401 kts | 254° |
| 2026-05-08 12:49 | 33.00298 | 133.99107 | 39997 ft | 401 kts | 254° |
| 2026-05-08 12:49 | 32.98734 | 133.92699 | 39993 ft | 401 kts | 254° |
| 2026-05-08 12:50 | 32.97183 | 133.86358 | 39954 ft | 401 kts | 254° |
| 2026-05-08 12:50 | 32.95617 | 133.79973 | 40002 ft | 402 kts | 254° |
| 2026-05-08 12:51 | 32.93255 | 133.70368 | 40000 ft | 403 kts | 254° |
| 2026-05-08 12:52 | 32.91679 | 133.63978 | 40003 ft | 403 kts | 254° |
| 2026-05-08 12:52 | 32.89297 | 133.54351 | 39994 ft | 403 kts | 254° |
| 2026-05-08 12:53 | 32.87711 | 133.47973 | 40001 ft | 403 kts | 254° |
| 2026-05-08 12:53 | 32.86117 | 133.41568 | 40036 ft | 403 kts | 255° |
| 2026-05-08 12:54 | 32.84511 | 133.35174 | 40024 ft | 403 kts | 254° |
| 2026-05-08 12:54 | 32.82907 | 133.28784 | 39967 ft | 403 kts | 254° |
| 2026-05-08 12:55 | 32.81308 | 133.22417 | 40029 ft | 402 kts | 254° |
| 2026-05-08 12:55 | 32.79714 | 133.16078 | 40022 ft | 402 kts | 254° |
| 2026-05-08 12:56 | 32.78117 | 133.09699 | 40016 ft | 402 kts | 254° |
| 2026-05-08 12:56 | 32.76484 | 133.03332 | 40018 ft | 402 kts | 251° |
| 2026-05-08 12:57 | 32.74252 | 132.97218 | 40021 ft | 404 kts | 246° |
| 2026-05-08 12:57 | 32.71447 | 132.91446 | 40022 ft | 406 kts | 242° |
| 2026-05-08 12:58 | 32.68474 | 132.85714 | 40019 ft | 407 kts | 242° |
| 2026-05-08 12:58 | 32.65515 | 132.79985 | 40021 ft | 407 kts | 242° |
| 2026-05-08 12:59 | 32.62587 | 132.74278 | 40020 ft | 407 kts | 242° |
| 2026-05-08 12:59 | 32.59638 | 132.68526 | 40020 ft | 407 kts | 242° |
| 2026-05-08 13:00 | 32.56688 | 132.62777 | 40023 ft | 407 kts | 242° |
| 2026-05-08 13:00 | 32.53753 | 132.57065 | 39992 ft | 407 kts | 242° |
| 2026-05-08 13:01 | 32.50803 | 132.51334 | 40018 ft | 407 kts | 242° |
| 2026-05-08 13:01 | 32.47836 | 132.45593 | 40021 ft | 408 kts | 242° |
| 2026-05-08 13:02 | 32.44870 | 132.39859 | 40048 ft | 408 kts | 242° |
| 2026-05-08 13:02 | 32.41902 | 132.34105 | 39699 ft | 411 kts | 242° |
| 2026-05-08 13:03 | 32.40408 | 132.31203 | 39090 ft | 411 kts | 242° |
| 2026-05-08 13:03 | 32.38913 | 132.28305 | 38114 ft | 412 kts | 242° |
| 2026-05-08 13:03 | 32.37428 | 132.25407 | 37141 ft | 412 kts | 242° |
| 2026-05-08 13:03 | 32.35932 | 132.22516 | 36228 ft | 411 kts | 240° |
| 2026-05-08 13:04 | 32.34243 | 132.19769 | 35228 ft | 416 kts | 232° |
| 2026-05-08 13:04 | 32.32129 | 132.17394 | 34244 ft | 424 kts | 223° |
| 2026-05-08 13:04 | 32.29640 | 132.15470 | 33093 ft | 431 kts | 214° |
| 2026-05-08 13:04 | 32.26886 | 132.14040 | 31746 ft | 444 kts | 207° |
| 2026-05-08 13:05 | 32.23911 | 132.12900 | 30457 ft | 452 kts | 204° |
| 2026-05-08 13:05 | 32.20875 | 132.11886 | 29472 ft | 450 kts | 203° |
| 2026-05-08 13:05 | 32.17872 | 132.10939 | 28706 ft | 442 kts | 202° |
| 2026-05-08 13:05 | 32.14921 | 132.10032 | 27977 ft | 435 kts | 202° |
| 2026-05-08 13:06 | 32.12002 | 132.09152 | 27212 ft | 429 kts | 202° |
| 2026-05-08 13:06 | 32.09199 | 132.08203 | 26416 ft | 417 kts | 208° |
| 2026-05-08 13:06 | 32.06618 | 132.06761 | 25670 ft | 403 kts | 218° |
| 2026-05-08 13:06 | 32.04374 | 132.04829 | 25063 ft | 396 kts | 227° |
| 2026-05-08 13:07 | 32.02505 | 132.02480 | 24431 ft | 391 kts | 236° |
| 2026-05-08 13:07 | 32.01047 | 131.99795 | 23562 ft | 387 kts | 245° |
| 2026-05-08 13:07 | 32.00063 | 131.96866 | 22572 ft | 383 kts | 255° |
| 2026-05-08 13:07 | 31.99582 | 131.93796 | 21599 ft | 381 kts | 265° |
| 2026-05-08 13:08 | 31.99613 | 131.90674 | 20670 ft | 382 kts | 275° |
| 2026-05-08 13:08 | 32.00151 | 131.87643 | 19810 ft | 384 kts | 285° |
| 2026-05-08 13:08 | 32.01216 | 131.84775 | 19424 ft | 378 kts | 296° |
| 2026-05-08 13:08 | 32.02497 | 131.82051 | 19247 ft | 380 kts | 288° |
| 2026-05-08 13:09 | 32.03005 | 131.79013 | 18762 ft | 381 kts | 271° |
| 2026-05-08 13:09 | 32.02778 | 131.75886 | 17882 ft | 383 kts | 261° |
| 2026-05-08 13:09 | 32.02171 | 131.72861 | 17014 ft | 382 kts | 256° |
| 2026-05-08 13:09 | 32.01413 | 131.69886 | 16356 ft | 374 kts | 254° |
| 2026-05-08 13:10 | 32.00631 | 131.66983 | 15742 ft | 367 kts | 254° |
| 2026-05-08 13:10 | 31.99872 | 131.64146 | 15236 ft | 358 kts | 254° |
| 2026-05-08 13:10 | 31.99143 | 131.61365 | 14846 ft | 354 kts | 255° |
| 2026-05-08 13:10 | 31.98437 | 131.58624 | 14489 ft | 353 kts | 255° |
| 2026-05-08 13:11 | 31.97728 | 131.55855 | 14129 ft | 352 kts | 254° |
| 2026-05-08 13:11 | 31.97024 | 131.53084 | 13752 ft | 352 kts | 254° |
| 2026-05-08 13:11 | 31.96322 | 131.50314 | 13305 ft | 353 kts | 255° |
| 2026-05-08 13:11 | 31.95618 | 131.47545 | 12950 ft | 351 kts | 255° |
| 2026-05-08 13:12 | 31.94911 | 131.44791 | 12588 ft | 350 kts | 254° |
| 2026-05-08 13:12 | 31.93948 | 131.42197 | 12227 ft | 351 kts | 242° |
| 2026-05-08 13:12 | 31.92634 | 131.39776 | 11887 ft | 349 kts | 239° |
| 2026-05-08 13:12 | 31.91302 | 131.37433 | 11534 ft | 339 kts | 239° |
| 2026-05-08 13:13 | 31.90022 | 131.35140 | 11175 ft | 330 kts | 240° |
| 2026-05-08 13:13 | 31.88831 | 131.32971 | 10826 ft | 307 kts | 239° |
| 2026-05-08 13:13 | 31.87720 | 131.30932 | 10522 ft | 285 kts | 240° |
| 2026-05-08 13:13 | 31.86678 | 131.29004 | 10126 ft | 277 kts | 240° |
| 2026-05-08 13:14 | 31.85996 | 131.27736 | 9957 ft | 274 kts | 240° |
| 2026-05-08 13:14 | 31.84986 | 131.25853 | 9705 ft | 269 kts | 240° |
| 2026-05-08 13:14 | 31.83992 | 131.23997 | 9411 ft | 268 kts | 240° |
| 2026-05-08 13:14 | 31.83001 | 131.22133 | 9038 ft | 268 kts | 241° |
| 2026-05-08 13:15 | 31.82014 | 131.20268 | 8665 ft | 269 kts | 241° |
| 2026-05-08 13:15 | 31.81019 | 131.18397 | 8269 ft | 270 kts | 241° |
| 2026-05-08 13:15 | 31.80027 | 131.16545 | 7961 ft | 269 kts | 241° |
| 2026-05-08 13:15 | 31.79031 | 131.14689 | 7646 ft | 268 kts | 241° |
| 2026-05-08 13:16 | 31.78025 | 131.12820 | 7367 ft | 272 kts | 242° |
| 2026-05-08 13:16 | 31.77011 | 131.10944 | 7220 ft | 271 kts | 242° |
| 2026-05-08 13:16 | 31.76001 | 131.09075 | 7087 ft | 270 kts | 242° |
| 2026-05-08 13:16 | 31.74998 | 131.07213 | 7024 ft | 268 kts | 242° |
| 2026-05-08 13:17 | 31.73987 | 131.05327 | 6754 ft | 276 kts | 242° |
| 2026-05-08 13:17 | 31.72962 | 131.03412 | 6450 ft | 275 kts | 242° |
| 2026-05-08 13:17 | 31.71962 | 131.01549 | 6169 ft | 269 kts | 242° |
| 2026-05-08 13:17 | 31.70976 | 130.99715 | 5878 ft | 254 kts | 242° |
| 2026-05-08 13:18 | 31.70050 | 130.97990 | 5632 ft | 253 kts | 242° |
| 2026-05-08 13:18 | 31.69111 | 130.96241 | 5370 ft | 252 kts | 242° |
| 2026-05-08 13:18 | 31.68176 | 130.94507 | 5113 ft | 251 kts | 242° |
| 2026-05-08 13:18 | 31.67247 | 130.92775 | 4865 ft | 248 kts | 244° |
| 2026-05-08 13:19 | 31.66610 | 130.90964 | 4591 ft | 236 kts | 261° |
| 2026-05-08 13:19 | 31.66264 | 130.89038 | 4362 ft | 245 kts | 263° |
| 2026-05-08 13:19 | 31.65973 | 130.87062 | 4086 ft | 242 kts | 273° |
| 2026-05-08 13:19 | 31.66280 | 130.85199 | 3844 ft | 227 kts | 296° |
| 2026-05-08 13:20 | 31.66823 | 130.83469 | 3629 ft | 225 kts | 295° |
| 2026-05-08 13:20 | 31.67335 | 130.81766 | 3368 ft | 215 kts | 295° |
| 2026-05-08 13:20 | 31.67958 | 130.80276 | 3132 ft | 194 kts | 320° |
| 2026-05-08 13:20 | 31.69067 | 130.79542 | 2947 ft | 176 kts | 338° |
| 2026-05-08 13:21 | 31.70096 | 130.78890 | 2910 ft | 164 kts | 332° |
| 2026-05-08 13:21 | 31.71077 | 130.78213 | 2690 ft | 158 kts | 332° |
| 2026-05-08 13:21 | 31.71977 | 130.77600 | 2484 ft | 141 kts | 332° |
| 2026-05-08 13:21 | 31.72787 | 130.77052 | 2301 ft | 127 kts | 332° |
| 2026-05-08 13:22 | 31.73519 | 130.76558 | 2132 ft | 121 kts | 331° |
| 2026-05-08 13:22 | 31.74250 | 130.76063 | 1985 ft | 122 kts | 331° |
| 2026-05-08 13:22 | 31.74991 | 130.75561 | 1822 ft | 124 kts | 331° |
| 2026-05-08 13:22 | 31.75747 | 130.75050 | 1662 ft | 127 kts | 330° |
| 2026-05-08 13:23 | 31.76524 | 130.74515 | 1518 ft | 129 kts | 328° |
| 2026-05-08 13:23 | 31.77293 | 130.73956 | 1298 ft | 130 kts | 330° |
| 2026-05-08 13:23 | 31.78066 | 130.73458 | 1108 ft | 127 kts | 330° |
| 2026-05-08 13:23 | 31.78836 | 130.72953 | 1003 ft | 126 kts | 328° |
| 2026-05-08 13:24 | 31.79566 | 130.72460 | 893 ft | 112 kts | 329° |
| 2026-05-08 13:24 | 31.80102 | 130.72096 | 903 ft | 63 kts | 330° |
| 2026-05-08 13:24 | 31.80381 | 130.71909 | 910 ft | 41 kts | 330° |
| 2026-05-08 13:24 | 31.80609 | 130.71756 | 914 ft | 35 kts | 330° |
| 2026-05-08 13:25 | 31.80785 | 130.71599 | 916 ft | 24 kts | 314° |
| 2026-05-08 13:25 | 31.80846 | 130.71506 | 918 ft | 7 kts | 305° |
| 2026-05-08 13:25 | 31.80860 | 130.71457 | 918 ft | 7 kts | 265° |
| 2026-05-08 13:25 | 31.80828 | 130.71420 | 918 ft | 7 kts | 201° |
| 2026-05-08 13:26 | 31.80771 | 130.71423 | 917 ft | 10 kts | 160° |
| 2026-05-08 13:26 | 31.80700 | 130.71469 | 915 ft | 13 kts | 149° |
| 2026-05-08 13:26 | 31.80609 | 130.71529 | 914 ft | 16 kts | 150° |
| 2026-05-08 13:26 | 31.80524 | 130.71588 | 912 ft | 8 kts | 149° |
| 2026-05-08 13:27 | 31.80474 | 130.71575 | 911 ft | 8 kts | 234° |
| 2026-05-08 13:27 | 31.80450 | 130.71506 | 912 ft | 10 kts | 243° |
| 2026-05-08 13:27 | 31.80436 | 130.71478 | 912 ft | 0 kts | 241° |